Estación de Los Colihues

Ultimos registro cada 15 minutos 46
Estación Fecha / Hora Temperatura Humedad Lluvia Velocidad Dirección Radiación Presion
46 Los Colihues 04-09-2026 11:15 0 0 0 0 0 0 0
45 Los Colihues 04-09-2026 11:00 11 67,9 0 3 194 608,1 1016,1
44 Los Colihues 04-09-2026 10:45 11,1 67,6 0 2,5 198 561,9 1016,3
43 Los Colihues 04-09-2026 10:30 10,2 68,3 0 2,5 208 556,9 1016,1
42 Los Colihues 04-09-2026 10:15 10 72,5 0 2,5 187 524,4 1016,1
41 Los Colihues 04-09-2026 10:00 9,8 73,6 0 1,5 199 489,4 1016,3
40 Los Colihues 04-09-2026 09:45 9,3 75 0 1 202 451,9 1016,3
39 Los Colihues 04-09-2026 09:30 8,3 78,2 0 2 202 410,6 1016,3
38 Los Colihues 04-09-2026 09:15 8 80 0 1,5 199 369,4 1016,2
37 Los Colihues 04-09-2026 09:00 7,5 82,2 0 1,5 206 324,4 1016,3
36 Los Colihues 04-09-2026 08:45 6,6 84,1 0 1 204 279,4 1016,5
35 Los Colihues 04-09-2026 08:30 6 85,8 0 0,5 197 235,6 1016,7
34 Los Colihues 04-09-2026 08:15 5,5 88 0 0 227 196,9 1016,7
33 Los Colihues 04-09-2026 08:00 4,9 88,7 0 0 246 161,9 1016,7
32 Los Colihues 04-09-2026 07:45 4,4 90,2 0 0 241 116,9 1016,4
31 Los Colihues 04-09-2026 07:30 3,9 93 0 0 241 60,6 1016,8
30 Los Colihues 04-09-2026 07:15 2,9 95,3 0 0 229 10,6 1017
29 Los Colihues 04-09-2026 07:00 2,8 95,1 0 0 254 1,9 1017,1
28 Los Colihues 04-09-2026 06:45 3,3 94,2 0 0 251 0,6 1017,1
27 Los Colihues 04-09-2026 06:30 3,4 94,3 0 0 236 0,6 1016,9
26 Los Colihues 04-09-2026 06:15 3,3 94,8 0 0 240 0,6 1016,9
25 Los Colihues 04-09-2026 06:00 2,8 96 0 0 246 0,6 1017
24 Los Colihues 04-09-2026 05:45 2,7 95,2 0 0 247 0,6 1017
23 Los Colihues 04-09-2026 05:30 3 94,5 0 0 247 0,6 1016,7
22 Los Colihues 04-09-2026 05:15 3,1 94,4 0 0 247 0,6 1016,7
21 Los Colihues 04-09-2026 05:00 3,3 93,6 0 0 248 0,6 1016,8
20 Los Colihues 04-09-2026 04:45 3,6 93,2 0 0 244 0,6 1016,6
19 Los Colihues 04-09-2026 04:30 3,3 93,7 0 0 248 0,6 1016,6
18 Los Colihues 04-09-2026 04:15 3,4 92,9 0 0 248 0,6 1016,5
17 Los Colihues 04-09-2026 04:00 3,9 91,6 0 0 247 0,6 1016,5
16 Los Colihues 04-09-2026 03:45 4 91,3 0 0 198 0,6 1016,7
15 Los Colihues 04-09-2026 03:30 4,1 90,6 0 0 202 0,6 1016,7
14 Los Colihues 04-09-2026 03:15 4,3 90,3 0 0 229 0,6 1016,9
13 Los Colihues 04-09-2026 03:00 4,6 89 0 0 229 0,6 1017
12 Los Colihues 04-09-2026 02:45 4,8 88,4 0 0 198 0,6 1017,2
11 Los Colihues 04-09-2026 02:30 5,1 87,1 0 0,5 201 0,6 1017,4
10 Los Colihues 04-09-2026 02:15 5,4 86,1 0 1 202 0,6 1017,4
9 Los Colihues 04-09-2026 02:00 5,7 85,1 0 1 195 0,6 1017,2
8 Los Colihues 04-09-2026 01:45 5,8 84,6 0 0,5 195 0,6 1017,1
7 Los Colihues 04-09-2026 01:30 5,8 84,1 0 0,5 198 0,6 1017,3
6 Los Colihues 04-09-2026 01:15 6,1 83 0 1 194 0,6 1017,4
5 Los Colihues 04-09-2026 01:00 6,1 82,6 0 1 195 0,6 1017,5
4 Los Colihues 04-09-2026 00:45 6,3 82,3 0 0,5 195 0,6 1017,6
3 Los Colihues 04-09-2026 00:30 6,6 81,8 0 0,5 199 0,6 1017,7
2 Los Colihues 04-09-2026 00:15 6,2 84,1 0 0 212 0,6 1017,5
1 Los Colihues 04-09-2026 00:00 5,8 86,1 0 0 190 0,6 1017,6